Terminal Aerodrome Forecast
Issued by NWS Charleston, WV

Current Version | Previous Version | Graphics & Text | Print | Product List | Glossary On
Versions: 1 2 3 4 5 6 7 8 9 10 11 12 13 14 15 16 17 18 19 20 21 22
466
FTUS41 KRLX 251728
TAFPKB
TAF
KPKB 251728Z 2518/2618 32006KT P6SM OVC015
     FM252000 32007KT P6SM OVC020
     FM260100 33006KT P6SM BKN035
     FM260800 00000KT 4SM BR BKN020
     FM261000 00000KT 1/4SM FG BKN001
     FM261300 00000KT 3SM BR SCT001
     FM261400 15004KT P6SM SCT040
     FM261700 31003KT P6SM SCT200=

USA.gov is the U.S. government's official web portal to all federal, state and local government web resources and services.